Time;durP1;ratioP1;P1;durP2;ratioP2;P2;SDS_P1;SDS_P2;PMS_P1;PMS_P2;Temp;Humidity;BMP_temperature;BMP_pressure;BME280_temperature;BME280_humidity;BME280_pressure;Samples;Min_cycle;Max_cycle;Signal;HPM_P1;HPM_P2
2021/06/21 00:01:18;;;;;;;11.15;3.92;;;;;;;;;;5109624;28;20144;-56
2021/06/21 00:03:44;;;;;;;11.73;4.53;;;;;;;;;;5103889;28;20054;-56
2021/06/21 00:06:09;;;;;;;9.57;4.20;;;;;;;;;;5109925;28;20583;-56
2021/06/21 00:08:34;;;;;;;9.48;4.47;;;;;;;;;;5112047;28;20046;-56
2021/06/21 00:10:59;;;;;;;10.05;4.28;;;;;;;;;;5107400;28;20111;-53
2021/06/21 00:13:24;;;;;;;9.50;4.78;;;;;;;;;;5093056;28;20039;-55
2021/06/21 00:15:52;;;;;;;11.68;5.03;;;;;;;;;;5112110;28;20015;-55
2021/06/21 00:18:17;;;;;;;10.40;5.22;;;;;;;;;;5097880;28;20034;-56
2021/06/21 00:20:42;;;;;;;10.30;5.33;;;;;;;;;;5094010;28;20092;-54
2021/06/21 00:23:08;;;;;;;19.20;5.10;;;;;;;;;;5100366;28;20353;-52
2021/06/21 00:25:33;;;;;;;6.72;2.30;;;;;;;;;;5093849;28;20055;-57
2021/06/21 00:27:58;;;;;;;7.63;3.15;;;;;;;;;;5103956;27;20025;-56
2021/06/21 00:30:24;;;;;;;6.00;2.67;;;;;;;;;;5110817;28;20028;-54
2021/06/21 00:32:49;;;;;;;9.70;2.95;;;;;;;;;;5101275;28;20110;-54
2021/06/21 00:35:15;;;;;;;5.78;2.05;;;;;;;;;;5109600;28;20078;-56
2021/06/21 00:37:40;;;;;;;7.30;2.20;;;;;;;;;;5100073;28;20015;-54
2021/06/21 00:40:07;;;;;;;9.90;2.25;;;;;;;;;;5106603;28;20366;-56
2021/06/21 00:42:33;;;;;;;6.25;2.38;;;;;;;;;;5089690;28;20016;-54
2021/06/21 00:44:58;;;;;;;10.45;2.45;;;;;;;;;;5099472;28;20064;-54
2021/06/21 00:47:23;;;;;;;5.57;1.63;;;;;;;;;;5098341;28;20051;-56
2021/06/21 00:49:49;;;;;;;6.72;1.85;;;;;;;;;;5112643;28;20530;-54
2021/06/21 00:52:18;;;;;;;7.25;1.40;;;;;;;;;;5098878;28;20098;-55
2021/06/21 00:54:44;;;;;;;3.38;1.15;;;;;;;;;;5108338;28;20507;-53
2021/06/21 00:57:09;;;;;;;6.43;1.58;;;;;;;;;;5103241;28;20107;-54
2021/06/21 00:59:34;;;;;;;6.30;1.65;;;;;;;;;;5110902;28;20050;-56
2021/06/21 01:01:59;;;;;;;11.05;1.60;;;;;;;;;;5104097;28;20027;-56
2021/06/21 01:04:25;;;;;;;3.83;1.25;;;;;;;;;;5111577;28;20068;-54
2021/06/21 01:06:50;;;;;;;3.83;1.10;;;;;;;;;;5109341;28;20020;-55
2021/06/21 01:09:15;;;;;;;5.90;1.63;;;;;;;;;;5102592;28;20474;-55
2021/06/21 01:12:00;;;;;;;6.10;1.48;;;;;;;;;;5105781;28;20389;-53
2021/06/21 01:14:33;;;;;;;7.40;1.60;;;;;;;;;;5111746;28;20027;-52
2021/06/21 01:17:15;;;;;;;4.28;0.82;;;;;;;;;;5111931;28;20015;-54
2021/06/21 01:19:43;;;;;;;5.25;1.13;;;;;;;;;;5105691;28;20081;-55
2021/06/21 01:22:37;;;;;;;5.53;1.08;;;;;;;;;;5100746;28;20024;-55
2021/06/21 01:25:08;;;;;;;5.28;1.00;;;;;;;;;;5085767;28;20110;-55
2021/06/21 01:27:36;;;;;;;6.28;1.73;;;;;;;;;;5101040;28;20016;-54
2021/06/21 01:30:07;;;;;;;3.08;0.85;;;;;;;;;;5108380;28;20084;-54
2021/06/21 01:32:32;;;;;;;2.50;0.63;;;;;;;;;;5105893;28;20066;-54
2021/06/21 01:35:00;;;;;;;3.70;0.73;;;;;;;;;;5111508;28;20059;-52
2021/06/21 01:37:25;;;;;;;4.03;0.70;;;;;;;;;;5109295;28;20277;-55
2021/06/21 01:39:52;;;;;;;3.90;0.50;;;;;;;;;;5101394;28;20375;-56
2021/06/21 01:42:19;;;;;;;3.20;0.80;;;;;;;;;;5096629;28;20040;-55
2021/06/21 01:44:47;;;;;;;4.85;0.93;;;;;;;;;;5111176;28;20038;-52
2021/06/21 01:47:13;;;;;;;5.20;1.20;;;;;;;;;;5109922;28;20436;-55
2021/06/21 01:49:40;;;;;;;4.07;0.80;;;;;;;;;;5111314;28;20390;-56
2021/06/21 01:52:07;;;;;;;4.97;1.02;;;;;;;;;;5095819;28;20048;-52
2021/06/21 01:54:32;;;;;;;3.55;1.17;;;;;;;;;;5113561;28;20020;-54
2021/06/21 01:56:58;;;;;;;4.28;1.27;;;;;;;;;;5109930;27;20386;-53
2021/06/21 01:59:27;;;;;;;3.80;1.05;;;;;;;;;;5114544;27;20090;-56
2021/06/21 02:01:53;;;;;;;6.75;1.15;;;;;;;;;;5106276;27;20038;-55
2021/06/21 02:04:19;;;;;;;4.82;1.33;;;;;;;;;;5104572;28;20107;-54
2021/06/21 02:06:45;;;;;;;3.83;1.48;;;;;;;;;;5106509;27;20031;-56
2021/06/21 02:09:11;;;;;;;4.25;1.30;;;;;;;;;;5114552;28;20020;-55
2021/06/21 02:11:37;;;;;;;4.75;1.40;;;;;;;;;;5110896;27;20027;-56
2021/06/21 02:14:03;;;;;;;5.35;1.13;;;;;;;;;;5110480;28;20117;-55
2021/06/21 02:16:29;;;;;;;7.95;1.58;;;;;;;;;;5097377;28;20472;-53
2021/06/21 02:18:54;;;;;;;5.28;1.50;;;;;;;;;;5095152;28;20364;-55
2021/06/21 02:21:23;;;;;;;5.85;1.77;;;;;;;;;;5099231;28;20474;-53
2021/06/21 02:23:49;;;;;;;6.28;1.60;;;;;;;;;;5114345;28;20549;-55
2021/06/21 02:26:15;;;;;;;4.57;1.73;;;;;;;;;;5115265;28;20059;-56
2021/06/21 02:28:40;;;;;;;5.07;1.40;;;;;;;;;;5096142;27;20020;-56
2021/06/21 02:31:06;;;;;;;7.63;1.48;;;;;;;;;;5106176;27;20027;-52
2021/06/21 02:33:31;;;;;;;5.38;1.90;;;;;;;;;;5111774;28;20470;-55
2021/06/21 02:35:56;;;;;;;3.88;1.23;;;;;;;;;;5114765;28;20016;-54
2021/06/21 02:38:22;;;;;;;7.72;1.52;;;;;;;;;;5099893;28;20082;-54
2021/06/21 02:40:47;;;;;;;5.03;1.20;;;;;;;;;;5091854;28;20030;-56
2021/06/21 02:43:12;;;;;;;5.20;1.67;;;;;;;;;;5104173;27;20378;-55
2021/06/21 02:45:38;;;;;;;7.68;1.70;;;;;;;;;;5107616;27;20015;-55
2021/06/21 02:48:05;;;;;;;7.40;1.60;;;;;;;;;;5105223;28;20039;-55
2021/06/21 02:50:30;;;;;;;5.25;1.75;;;;;;;;;;5110038;27;20314;-54
2021/06/21 02:53:14;;;;;;;4.82;1.70;;;;;;;;;;5112659;27;20020;-56
2021/06/21 02:55:54;;;;;;;4.00;1.52;;;;;;;;;;5108603;28;20020;-55
2021/06/21 02:58:22;;;;;;;6.88;1.85;;;;;;;;;;5103245;28;20043;-56
2021/06/21 03:00:51;;;;;;;5.53;1.90;;;;;;;;;;5109421;28;20031;-52
2021/06/21 03:03:18;;;;;;;5.38;1.67;;;;;;;;;;5108946;28;20015;-53
2021/06/21 03:05:48;;;;;;;3.50;1.60;;;;;;;;;;5114036;28;20019;-55
2021/06/21 03:08:13;;;;;;;6.80;2.08;;;;;;;;;;5104354;28;20038;-55
2021/06/21 03:10:39;;;;;;;7.43;2.60;;;;;;;;;;5111317;28;20311;-55
2021/06/21 03:13:05;;;;;;;7.05;2.78;;;;;;;;;;5108854;28;20506;-55
2021/06/21 03:15:30;;;;;;;7.22;2.80;;;;;;;;;;5098919;28;20054;-54
2021/06/21 03:17:56;;;;;;;7.57;2.88;;;;;;;;;;5112204;28;20489;-54
2021/06/21 03:20:21;;;;;;;8.00;2.70;;;;;;;;;;5110479;28;20015;-55
2021/06/21 03:22:47;;;;;;;4.70;2.50;;;;;;;;;;5104697;27;20107;-55
2021/06/21 03:25:12;;;;;;;4.65;2.63;;;;;;;;;;5111346;28;20051;-55
2021/06/21 03:27:39;;;;;;;4.82;2.80;;;;;;;;;;5113062;27;20034;-56
2021/06/21 03:30:05;;;;;;;8.55;3.17;;;;;;;;;;5098052;28;20478;-56
2021/06/21 03:32:33;;;;;;;9.05;2.97;;;;;;;;;;5100406;28;20031;-56
2021/06/21 03:35:00;;;;;;;4.78;3.15;;;;;;;;;;5093606;28;20028;-54
2021/06/21 03:37:26;;;;;;;6.05;2.65;;;;;;;;;;5107483;28;20096;-55
2021/06/21 03:39:51;;;;;;;6.55;3.25;;;;;;;;;;5109617;28;20052;-54
2021/06/21 03:42:16;;;;;;;8.80;3.30;;;;;;;;;;5095735;28;20043;-55
2021/06/21 03:44:41;;;;;;;5.85;3.17;;;;;;;;;;5108065;28;20023;-56
2021/06/21 03:47:09;;;;;;;6.95;2.83;;;;;;;;;;5112786;28;20024;-52
2021/06/21 03:49:34;;;;;;;6.82;3.17;;;;;;;;;;5106391;28;20032;-53
2021/06/21 03:51:59;;;;;;;6.10;3.50;;;;;;;;;;5105729;27;20042;-56
2021/06/21 03:54:24;;;;;;;6.20;3.92;;;;;;;;;;5109019;28;20030;-56
2021/06/21 03:56:49;;;;;;;6.60;3.38;;;;;;;;;;5101385;27;20436;-57
2021/06/21 03:59:15;;;;;;;7.60;3.95;;;;;;;;;;5110435;28;20378;-56
2021/06/21 04:01:40;;;;;;;7.88;3.83;;;;;;;;;;5109503;27;20139;-55
2021/06/21 04:04:06;;;;;;;6.80;3.85;;;;;;;;;;5100302;27;20020;-54
2021/06/21 04:06:31;;;;;;;5.15;3.40;;;;;;;;;;5110183;27;20088;-54
2021/06/21 04:08:56;;;;;;;6.30;4.05;;;;;;;;;;5107454;27;20031;-55
2021/06/21 04:11:23;;;;;;;5.95;3.45;;;;;;;;;;5097905;28;20428;-56
2021/06/21 04:13:48;;;;;;;7.28;3.88;;;;;;;;;;5094715;28;20023;-56
2021/06/21 04:16:13;;;;;;;7.00;4.20;;;;;;;;;;5111975;28;20514;-56
2021/06/21 04:18:38;;;;;;;6.07;3.87;;;;;;;;;;5111388;28;20052;-55
2021/06/21 04:21:04;;;;;;;8.95;4.25;;;;;;;;;;5104993;28;20258;-56
2021/06/21 04:23:29;;;;;;;6.25;4.20;;;;;;;;;;5107634;28;20026;-57
2021/06/21 04:25:54;;;;;;;9.38;4.10;;;;;;;;;;5095397;28;20142;-57
2021/06/21 04:28:20;;;;;;;6.95;4.60;;;;;;;;;;5111513;28;20016;-56
2021/06/21 04:30:48;;;;;;;7.25;3.95;;;;;;;;;;5094310;28;20231;-57
2021/06/21 04:33:13;;;;;;;7.93;4.13;;;;;;;;;;5105186;28;20486;-54
2021/06/21 04:35:38;;;;;;;8.35;4.10;;;;;;;;;;5110174;28;20105;-54
2021/06/21 04:38:03;;;;;;;7.28;4.30;;;;;;;;;;5101452;27;20077;-54
2021/06/21 04:40:30;;;;;;;7.30;4.03;;;;;;;;;;5091635;28;20034;-55
2021/06/21 04:42:55;;;;;;;7.70;4.18;;;;;;;;;;5100532;28;20026;-52
2021/06/21 04:45:20;;;;;;;7.50;3.95;;;;;;;;;;5104698;28;20020;-56
2021/06/21 04:47:46;;;;;;;6.28;4.18;;;;;;;;;;5105789;28;20433;-53
2021/06/21 04:50:13;;;;;;;7.75;4.28;;;;;;;;;;5101809;28;20122;-54
2021/06/21 04:52:39;;;;;;;7.28;4.22;;;;;;;;;;5090933;28;20026;-55
2021/06/21 04:55:05;;;;;;;7.78;4.03;;;;;;;;;;5107994;28;20077;-56
2021/06/21 04:57:31;;;;;;;8.95;4.38;;;;;;;;;;5109815;28;20026;-54
2021/06/21 04:59:56;;;;;;;8.30;4.30;;;;;;;;;;5112578;28;20016;-54
2021/06/21 05:02:22;;;;;;;8.45;4.80;;;;;;;;;;5103123;28;20035;-56
2021/06/21 05:04:47;;;;;;;6.22;4.80;;;;;;;;;;5101901;28;20032;-53
2021/06/21 05:07:13;;;;;;;9.75;4.68;;;;;;;;;;5108847;28;20023;-56
2021/06/21 05:09:38;;;;;;;10.02;5.10;;;;;;;;;;5107890;28;20028;-50
2021/06/21 05:12:03;;;;;;;7.38;4.63;;;;;;;;;;5096743;28;20019;-55
2021/06/21 05:14:29;;;;;;;9.23;5.40;;;;;;;;;;5105475;28;20031;-55
2021/06/21 05:16:55;;;;;;;9.18;5.40;;;;;;;;;;5108944;28;20020;-54
2021/06/21 05:19:20;;;;;;;9.20;5.35;;;;;;;;;;5107647;27;20398;-55
2021/06/21 05:21:45;;;;;;;10.20;5.68;;;;;;;;;;5099729;28;20012;-55
2021/06/21 05:24:11;;;;;;;8.73;5.00;;;;;;;;;;5108077;28;20119;-54
2021/06/21 05:26:36;;;;;;;9.55;5.53;;;;;;;;;;5112241;28;20032;-56
2021/06/21 05:29:01;;;;;;;6.63;4.88;;;;;;;;;;5113535;27;20032;-55
2021/06/21 05:31:26;;;;;;;7.13;4.57;;;;;;;;;;5101877;28;20357;-55
2021/06/21 05:33:52;;;;;;;8.20;4.22;;;;;;;;;;5110225;28;20042;-54
2021/06/21 05:36:17;;;;;;;7.82;4.20;;;;;;;;;;5111040;28;20008;-54
2021/06/21 05:38:42;;;;;;;5.55;4.00;;;;;;;;;;5107365;27;20015;-53
2021/06/21 05:41:07;;;;;;;7.65;4.10;;;;;;;;;;5104969;27;20018;-53
2021/06/21 05:43:33;;;;;;;5.60;4.05;;;;;;;;;;5107726;27;20016;-57
2021/06/21 05:45:58;;;;;;;6.00;3.85;;;;;;;;;;5108858;27;20479;-56
2021/06/21 05:48:23;;;;;;;7.78;3.80;;;;;;;;;;5110295;27;20415;-57
2021/06/21 05:50:50;;;;;;;6.85;3.97;;;;;;;;;;5105502;27;20024;-57
2021/06/21 05:53:15;;;;;;;9.57;4.50;;;;;;;;;;5107467;27;20024;-52
2021/06/21 05:55:40;;;;;;;7.22;4.32;;;;;;;;;;5109639;27;20430;-55
2021/06/21 05:58:06;;;;;;;5.40;4.10;;;;;;;;;;5106642;27;20108;-55
2021/06/21 06:00:31;;;;;;;6.03;3.53;;;;;;;;;;5107029;27;20772;-52
2021/06/21 06:02:56;;;;;;;7.22;3.13;;;;;;;;;;5110519;27;20012;-53
2021/06/21 06:05:22;;;;;;;6.78;3.10;;;;;;;;;;5107684;27;20131;-56
2021/06/21 06:07:47;;;;;;;6.60;3.60;;;;;;;;;;5103885;28;20028;-55
2021/06/21 06:10:14;;;;;;;6.85;3.13;;;;;;;;;;5107217;28;20031;-53
2021/06/21 06:12:39;;;;;;;7.72;2.90;;;;;;;;;;5102925;27;20055;-55
2021/06/21 06:15:05;;;;;;;5.05;2.40;;;;;;;;;;5104289;28;20051;-53
2021/06/21 06:17:30;;;;;;;7.80;2.17;;;;;;;;;;5113924;28;20016;-54
2021/06/21 06:19:55;;;;;;;6.75;2.80;;;;;;;;;;5110346;28;20015;-53
2021/06/21 06:22:21;;;;;;;5.65;2.50;;;;;;;;;;5098896;28;20047;-55
2021/06/21 06:24:46;;;;;;;7.43;2.85;;;;;;;;;;5109530;28;20442;-54
2021/06/21 06:27:11;;;;;;;3.75;1.90;;;;;;;;;;5110909;28;20073;-54
2021/06/21 06:29:37;;;;;;;5.03;2.38;;;;;;;;;;5106843;28;20030;-55
2021/06/21 06:32:02;;;;;;;4.90;2.55;;;;;;;;;;5094977;28;20368;-52
2021/06/21 06:34:28;;;;;;;8.70;2.60;;;;;;;;;;5106078;28;20031;-54
2021/06/21 06:36:53;;;;;;;4.75;2.25;;;;;;;;;;5103677;28;20374;-52
2021/06/21 06:39:19;;;;;;;7.20;2.92;;;;;;;;;;5094358;28;20013;-55
2021/06/21 06:41:44;;;;;;;4.22;2.40;;;;;;;;;;5108101;28;20016;-55
2021/06/21 06:44:09;;;;;;;7.65;2.33;;;;;;;;;;5111434;28;20027;-52
2021/06/21 06:46:35;;;;;;;6.13;2.33;;;;;;;;;;5103755;28;20430;-55
2021/06/21 06:49:00;;;;;;;7.15;2.10;;;;;;;;;;5107152;28;20015;-55
2021/06/21 06:51:28;;;;;;;4.43;1.50;;;;;;;;;;5104607;28;20020;-51
2021/06/21 06:54:05;;;;;;;4.93;1.67;;;;;;;;;;5104127;28;20016;-55
2021/06/21 06:59:35;;;;;;;1.88;0.90;;;;;;;;;;5050423;28;20476;-54
2021/06/21 07:02:02;;;;;;;4.43;1.33;;;;;;;;;;5047268;28;20148;-55
2021/06/21 07:04:29;;;;;;;4.68;1.13;;;;;;;;;;5044001;28;20206;-56
2021/06/21 07:06:54;;;;;;;4.30;0.90;;;;;;;;;;5034651;28;20025;-55
2021/06/21 07:09:19;;;;;;;5.88;1.45;;;;;;;;;;5052136;28;20104;-51
2021/06/21 07:11:47;;;;;;;2.40;0.73;;;;;;;;;;5042991;28;20040;-54
2021/06/21 07:14:13;;;;;;;4.95;1.17;;;;;;;;;;5047401;28;20037;-56
2021/06/21 07:16:38;;;;;;;3.88;0.98;;;;;;;;;;5047559;28;20035;-54
2021/06/21 07:19:03;;;;;;;3.92;0.90;;;;;;;;;;5048576;28;20511;-53
2021/06/21 07:21:29;;;;;;;5.03;1.63;;;;;;;;;;5043411;28;20042;-53
2021/06/21 07:23:54;;;;;;;2.90;1.00;;;;;;;;;;5028970;28;20071;-54
2021/06/21 07:26:20;;;;;;;3.95;1.17;;;;;;;;;;5031267;28;20025;-52
2021/06/21 07:28:45;;;;;;;3.90;0.85;;;;;;;;;;5051009;28;20095;-54
2021/06/21 07:31:11;;;;;;;4.43;0.73;;;;;;;;;;5094852;28;20028;-54
2021/06/21 07:33:37;;;;;;;4.70;1.50;;;;;;;;;;5092402;28;20027;-57
2021/06/21 07:36:02;;;;;;;3.17;0.80;;;;;;;;;;5098012;28;20012;-53
2021/06/21 07:38:28;;;;;;;4.57;1.33;;;;;;;;;;5105655;28;20028;-57
2021/06/21 07:40:53;;;;;;;2.05;0.80;;;;;;;;;;5097489;28;20023;-54
2021/06/21 07:43:18;;;;;;;3.40;0.60;;;;;;;;;;5099387;28;20027;-54
2021/06/21 07:45:45;;;;;;;2.40;0.63;;;;;;;;;;5113603;28;20024;-55
2021/06/21 07:48:10;;;;;;;4.53;1.30;;;;;;;;;;5101891;28;20032;-56
2021/06/21 07:50:36;;;;;;;8.20;1.17;;;;;;;;;;5091389;28;20478;-53
2021/06/21 07:53:03;;;;;;;3.00;1.02;;;;;;;;;;5102816;28;20020;-55
2021/06/21 07:55:28;;;;;;;5.00;1.50;;;;;;;;;;5113154;28;20024;-56
2021/06/21 07:57:54;;;;;;;5.15;1.40;;;;;;;;;;5106659;28;20020;-57
2021/06/21 08:00:22;;;;;;;5.78;1.20;;;;;;;;;;5107975;28;20020;-57
2021/06/21 08:02:48;;;;;;;3.47;1.33;;;;;;;;;;5098840;28;20062;-57
2021/06/21 08:05:13;;;;;;;7.60;1.75;;;;;;;;;;5092651;28;20029;-55
2021/06/21 08:07:39;;;;;;;3.80;1.35;;;;;;;;;;5100551;28;20071;-54
2021/06/21 08:10:04;;;;;;;4.13;0.90;;;;;;;;;;5108254;28;20425;-56
2021/06/21 08:12:30;;;;;;;2.85;1.02;;;;;;;;;;5096330;28;20024;-56
2021/06/21 08:14:55;;;;;;;3.60;1.15;;;;;;;;;;5092891;28;20077;-56
2021/06/21 08:17:20;;;;;;;3.63;0.98;;;;;;;;;;5108290;28;20012;-55
2021/06/21 08:19:45;;;;;;;4.57;1.10;;;;;;;;;;5097951;28;20020;-54
2021/06/21 08:22:11;;;;;;;4.35;1.08;;;;;;;;;;5097637;28;20135;-56
2021/06/21 08:24:38;;;;;;;4.90;1.27;;;;;;;;;;5105996;28;20020;-57
2021/06/21 08:27:03;;;;;;;6.28;1.20;;;;;;;;;;5098540;28;20024;-55
2021/06/21 08:29:28;;;;;;;4.68;1.48;;;;;;;;;;5100276;28;20081;-57
2021/06/21 08:31:53;;;;;;;4.97;1.33;;;;;;;;;;5098441;28;20432;-56
2021/06/21 08:34:19;;;;;;;3.83;1.20;;;;;;;;;;5106664;28;20024;-55
2021/06/21 08:36:44;;;;;;;4.33;1.33;;;;;;;;;;5101792;28;20267;-56
2021/06/21 08:39:09;;;;;;;9.00;1.70;;;;;;;;;;5111459;28;20265;-55
2021/06/21 08:41:36;;;;;;;5.88;1.38;;;;;;;;;;5104155;28;20633;-55
2021/06/21 08:44:01;;;;;;;3.08;1.58;;;;;;;;;;5093506;28;20099;-54
2021/06/21 08:46:27;;;;;;;4.65;1.17;;;;;;;;;;5104003;28;20445;-55
2021/06/21 08:48:55;;;;;;;4.23;1.20;;;;;;;;;;5102573;28;20470;-55
2021/06/21 08:51:21;;;;;;;5.47;1.30;;;;;;;;;;5102953;28;20257;-55
2021/06/21 08:53:46;;;;;;;5.75;1.50;;;;;;;;;;5112499;28;20378;-56
2021/06/21 08:56:11;;;;;;;1.87;1.03;;;;;;;;;;5111070;28;20012;-53
2021/06/21 08:58:37;;;;;;;5.28;1.30;;;;;;;;;;5099279;28;20283;-56
2021/06/21 09:01:02;;;;;;;4.43;1.38;;;;;;;;;;5109071;28;20159;-56
2021/06/21 09:03:30;;;;;;;6.53;2.05;;;;;;;;;;5108468;28;20077;-53
2021/06/21 09:06:04;;;;;;;4.70;1.52;;;;;;;;;;5106474;28;20028;-54
2021/06/21 09:08:49;;;;;;;6.80;1.75;;;;;;;;;;5110309;28;20104;-53
2021/06/21 09:11:15;;;;;;;5.65;1.50;;;;;;;;;;5112629;28;20031;-57
2021/06/21 09:13:40;;;;;;;6.67;1.67;;;;;;;;;;5105965;28;20542;-56
2021/06/21 09:16:05;;;;;;;4.93;1.43;;;;;;;;;;5110402;28;20814;-56
2021/06/21 09:18:35;;;;;;;6.03;1.52;;;;;;;;;;5106556;28;20353;-56
2021/06/21 09:21:20;;;;;;;4.90;1.10;;;;;;;;;;5105177;28;20527;-56
2021/06/21 09:23:46;;;;;;;6.72;1.67;;;;;;;;;;5114408;28;20084;-57
2021/06/21 09:26:15;;;;;;;7.22;1.77;;;;;;;;;;5114792;28;20103;-54
2021/06/21 09:28:40;;;;;;;8.48;1.52;;;;;;;;;;5107386;28;20540;-56
2021/06/21 09:31:05;;;;;;;3.38;1.13;;;;;;;;;;5106488;28;20028;-57
2021/06/21 09:33:30;;;;;;;5.85;1.25;;;;;;;;;;5110956;28;20024;-55
2021/06/21 09:35:56;;;;;;;5.20;1.63;;;;;;;;;;5112080;28;20482;-56
2021/06/21 09:38:21;;;;;;;5.75;1.92;;;;;;;;;;5113499;28;20394;-56
2021/06/21 09:40:50;;;;;;;6.73;1.73;;;;;;;;;;5110695;28;20200;-57
2021/06/21 09:43:29;;;;;;;6.80;2.03;;;;;;;;;;5110325;28;20306;-56
2021/06/21 09:46:00;;;;;;;4.70;1.42;;;;;;;;;;5114684;28;20023;-55
2021/06/21 09:48:29;;;;;;;5.47;1.88;;;;;;;;;;5106798;28;20108;-56
2021/06/21 09:50:55;;;;;;;7.85;1.63;;;;;;;;;;5100943;28;20071;-55
2021/06/21 09:53:22;;;;;;;6.57;1.70;;;;;;;;;;5109448;28;20023;-55
2021/06/21 09:55:47;;;;;;;8.48;1.90;;;;;;;;;;5112588;28;20364;-56
2021/06/21 09:58:14;;;;;;;9.52;2.13;;;;;;;;;;5094408;28;20024;-56
2021/06/21 10:00:42;;;;;;;7.40;1.85;;;;;;;;;;5096551;28;20418;-57
2021/06/21 10:03:12;;;;;;;6.07;1.30;;;;;;;;;;5099031;28;20052;-53
2021/06/21 10:05:43;;;;;;;4.57;1.02;;;;;;;;;;5111936;28;20490;-55
2021/06/21 10:08:10;;;;;;;7.63;1.27;;;;;;;;;;5109423;28;20052;-56
2021/06/21 10:10:35;;;;;;;6.88;1.58;;;;;;;;;;5095397;28;20008;-55
2021/06/21 10:13:01;;;;;;;4.95;1.65;;;;;;;;;;5108157;28;20394;-55
2021/06/21 10:15:26;;;;;;;3.58;1.48;;;;;;;;;;5102452;28;20032;-55
2021/06/21 10:17:52;;;;;;;7.75;1.90;;;;;;;;;;5096367;28;20032;-55
2021/06/21 10:20:17;;;;;;;6.43;1.70;;;;;;;;;;5102232;28;20013;-55
2021/06/21 10:22:42;;;;;;;7.13;1.65;;;;;;;;;;5098483;28;20258;-56
2021/06/21 10:25:09;;;;;;;7.00;1.50;;;;;;;;;;5100517;28;20063;-55
2021/06/21 10:27:37;;;;;;;6.10;1.50;;;;;;;;;;5108037;28;20421;-55
2021/06/21 10:30:03;;;;;;;7.07;1.75;;;;;;;;;;5106488;28;20487;-56
2021/06/21 10:32:29;;;;;;;5.55;1.45;;;;;;;;;;5107283;28;20049;-57
2021/06/21 10:34:54;;;;;;;5.57;1.35;;;;;;;;;;5096491;28;20467;-56
2021/06/21 10:37:21;;;;;;;5.28;1.52;;;;;;;;;;5106263;28;20012;-54
2021/06/21 10:39:51;;;;;;;7.97;1.60;;;;;;;;;;5114132;28;20356;-57
2021/06/21 10:42:20;;;;;;;5.35;1.00;;;;;;;;;;5108595;27;20011;-56
2021/06/21 10:44:54;;;;;;;6.72;0.77;;;;;;;;;;5098450;28;20103;-56
2021/06/21 10:47:39;;;;;;;5.25;1.60;;;;;;;;;;5102200;28;20379;-57
2021/06/21 10:50:09;;;;;;;5.63;1.25;;;;;;;;;;5096808;28;20378;-55
2021/06/21 10:52:39;;;;;;;6.72;1.23;;;;;;;;;;5101445;28;20020;-55
2021/06/21 10:55:29;;;;;;;3.95;0.82;;;;;;;;;;5101509;28;20069;-55
2021/06/21 10:57:55;;;;;;;8.90;1.30;;;;;;;;;;5084202;28;20028;-55
2021/06/21 11:00:22;;;;;;;6.93;0.90;;;;;;;;;;5105874;28;20453;-52
2021/06/21 11:02:47;;;;;;;5.03;1.35;;;;;;;;;;5102138;28;20530;-55
2021/06/21 11:05:31;;;;;;;3.38;0.93;;;;;;;;;;5108981;28;20149;-56
2021/06/21 11:08:25;;;;;;;5.82;0.60;;;;;;;;;;5105105;28;20044;-53
2021/06/21 11:10:51;;;;;;;5.40;0.95;;;;;;;;;;5087429;28;20113;-56
2021/06/21 11:13:31;;;;;;;4.57;0.80;;;;;;;;;;5105494;28;20019;-56
2021/06/21 11:16:24;;;;;;;4.07;1.10;;;;;;;;;;5098267;28;20031;-56
2021/06/21 11:19:09;;;;;;;5.55;1.08;;;;;;;;;;5103609;28;20023;-57
2021/06/21 11:21:46;;;;;;;8.27;0.93;;;;;;;;;;5098230;28;20024;-57
2021/06/21 11:24:32;;;;;;;4.85;1.15;;;;;;;;;;5095978;28;20056;-55
2021/06/21 11:26:58;;;;;;;4.47;1.13;;;;;;;;;;5102809;28;20019;-54
2021/06/21 11:29:36;;;;;;;4.63;1.05;;;;;;;;;;5101167;28;20051;-56
2021/06/21 11:32:04;;;;;;;2.40;0.60;;;;;;;;;;5099680;28;20011;-57
2021/06/21 11:34:44;;;;;;;3.38;0.65;;;;;;;;;;5099678;28;20039;-57
2021/06/21 11:37:30;;;;;;;5.90;0.80;;;;;;;;;;5101865;28;20114;-54
2021/06/21 11:40:21;;;;;;;5.35;0.68;;;;;;;;;;5088638;28;20034;-52
2021/06/21 11:42:56;;;;;;;3.67;1.00;;;;;;;;;;5102757;28;20108;-56
2021/06/21 11:45:41;;;;;;;5.85;1.15;;;;;;;;;;5104552;28;20406;-57
2021/06/21 11:48:06;;;;;;;2.95;0.70;;;;;;;;;;5099842;28;20027;-54
2021/06/21 11:50:31;;;;;;;5.60;1.27;;;;;;;;;;5095398;28;20367;-56
2021/06/21 11:52:56;;;;;;;5.90;1.13;;;;;;;;;;5099898;28;20361;-55
2021/06/21 11:55:22;;;;;;;5.77;0.83;;;;;;;;;;5102614;28;20806;-56
2021/06/21 11:57:47;;;;;;;4.82;0.80;;;;;;;;;;5104625;28;20296;-56
2021/06/21 12:00:17;;;;;;;3.92;0.80;;;;;;;;;;5109829;28;20043;-55
2021/06/21 12:02:43;;;;;;;3.83;0.60;;;;;;;;;;5106304;28;20032;-57
2021/06/21 12:05:09;;;;;;;3.75;1.00;;;;;;;;;;5108596;28;20382;-55
2021/06/21 12:07:40;;;;;;;4.88;0.82;;;;;;;;;;5098716;28;20031;-54
2021/06/21 12:10:06;;;;;;;3.33;0.80;;;;;;;;;;5112366;28;20023;-57
2021/06/21 12:12:32;;;;;;;3.40;0.50;;;;;;;;;;5107649;28;20035;-57
2021/06/21 12:14:57;;;;;;;2.85;0.50;;;;;;;;;;5107872;28;20081;-57
2021/06/21 12:17:24;;;;;;;5.82;0.70;;;;;;;;;;5102504;28;20417;-55
2021/06/21 12:20:22;;;;;;;2.33;0.60;;;;;;;;;;5108206;28;20081;-55
2021/06/21 12:22:57;;;;;;;2.78;1.10;;;;;;;;;;5059985;28;20063;-55
2021/06/21 12:25:24;;;;;;;4.40;0.55;;;;;;;;;;5100766;28;20103;-56
2021/06/21 12:27:50;;;;;;;3.58;0.75;;;;;;;;;;5098389;28;20032;-55
2021/06/21 12:30:30;;;;;;;3.33;0.60;;;;;;;;;;5106747;28;20028;-56
2021/06/21 12:32:56;;;;;;;3.88;0.95;;;;;;;;;;5106261;28;20374;-55
2021/06/21 12:35:21;;;;;;;4.20;0.50;;;;;;;;;;5109404;28;20027;-56
2021/06/21 12:37:46;;;;;;;6.13;0.70;;;;;;;;;;5108836;28;20020;-57
2021/06/21 12:40:14;;;;;;;2.60;0.60;;;;;;;;;;5100420;28;20019;-56
2021/06/21 12:42:40;;;;;;;3.10;0.52;;;;;;;;;;5098143;28;20020;-56
2021/06/21 12:45:11;;;;;;;3.35;0.68;;;;;;;;;;5092603;28;20027;-55
2021/06/21 12:47:41;;;;;;;4.05;0.75;;;;;;;;;;5108054;28;20051;-55
2021/06/21 12:50:07;;;;;;;5.88;0.80;;;;;;;;;;5106799;28;20535;-56
2021/06/21 12:52:33;;;;;;;6.30;0.68;;;;;;;;;;5098140;28;20098;-56
2021/06/21 12:55:07;;;;;;;3.50;0.60;;;;;;;;;;5094723;28;20034;-56
2021/06/21 12:57:44;;;;;;;4.68;0.55;;;;;;;;;;5107115;28;20015;-54
2021/06/21 13:00:10;;;;;;;3.30;0.30;;;;;;;;;;5111324;28;20505;-56
2021/06/21 13:02:35;;;;;;;2.63;0.40;;;;;;;;;;5107102;28;20040;-57
2021/06/21 13:05:03;;;;;;;4.50;0.40;;;;;;;;;;5107857;28;20031;-56
2021/06/21 13:07:29;;;;;;;4.63;0.68;;;;;;;;;;5112044;28;20030;-57
2021/06/21 13:09:55;;;;;;;2.50;0.63;;;;;;;;;;5099193;28;20032;-54
2021/06/21 13:12:25;;;;;;;2.83;0.40;;;;;;;;;;5088812;28;20489;-57
2021/06/21 13:14:51;;;;;;;2.42;0.40;;;;;;;;;;5102124;28;20032;-55
2021/06/21 13:17:17;;;;;;;2.20;0.30;;;;;;;;;;5105102;28;20031;-53
2021/06/21 13:19:51;;;;;;;2.42;0.25;;;;;;;;;;5105670;28;20047;-57
2021/06/21 13:22:29;;;;;;;2.75;0.50;;;;;;;;;;5096548;28;20095;-53
2021/06/21 13:24:55;;;;;;;3.70;0.65;;;;;;;;;;5111179;28;20058;-52
2021/06/21 13:27:25;;;;;;;2.40;0.40;;;;;;;;;;5097228;28;20028;-56
2021/06/21 13:29:51;;;;;;;2.97;0.40;;;;;;;;;;5091666;28;20027;-56
2021/06/21 13:32:21;;;;;;;1.88;0.40;;;;;;;;;;5091729;28;20077;-56
2021/06/21 13:34:49;;;;;;;2.78;0.57;;;;;;;;;;5098375;28;20413;-57
2021/06/21 13:37:21;;;;;;;2.55;0.40;;;;;;;;;;5110061;28;20016;-56
2021/06/21 13:39:52;;;;;;;3.42;0.40;;;;;;;;;;5106929;28;20027;-56
2021/06/21 13:42:27;;;;;;;3.00;0.40;;;;;;;;;;5089299;28;20030;-55
2021/06/21 13:44:53;;;;;;;3.30;0.47;;;;;;;;;;5107330;28;20028;-57
2021/06/21 13:47:33;;;;;;;2.45;0.40;;;;;;;;;;5111165;28;20031;-57
2021/06/21 13:50:02;;;;;;;1.48;0.30;;;;;;;;;;5115080;28;20084;-56
2021/06/21 13:52:38;;;;;;;1.55;0.30;;;;;;;;;;5097534;28;20017;-57
2021/06/21 13:55:05;;;;;;;4.15;0.40;;;;;;;;;;5096721;28;20028;-55
2021/06/21 13:57:40;;;;;;;3.97;0.52;;;;;;;;;;5106922;28;20087;-57
2021/06/21 14:00:07;;;;;;;1.95;0.47;;;;;;;;;;5115499;28;20474;-55
2021/06/21 14:02:37;;;;;;;2.55;0.30;;;;;;;;;;5099538;28;20081;-56
2021/06/21 14:05:03;;;;;;;1.75;0.60;;;;;;;;;;5111651;28;20026;-55
2021/06/21 14:07:28;;;;;;;2.75;0.50;;;;;;;;;;5101010;28;20585;-53
2021/06/21 14:09:57;;;;;;;3.57;0.90;;;;;;;;;;5096197;28;20063;-56
2021/06/21 14:12:23;;;;;;;2.03;0.45;;;;;;;;;;5095211;28;20024;-54
2021/06/21 14:14:49;;;;;;;2.90;0.30;;;;;;;;;;5114897;28;20098;-54
2021/06/21 14:17:14;;;;;;;3.25;0.40;;;;;;;;;;5103595;28;20491;-56
2021/06/21 14:19:39;;;;;;;3.22;0.45;;;;;;;;;;5094292;28;20087;-53
2021/06/21 14:22:04;;;;;;;1.43;0.33;;;;;;;;;;5103932;28;20023;-55
2021/06/21 14:24:30;;;;;;;3.30;0.30;;;;;;;;;;5114561;28;20034;-55
2021/06/21 14:26:55;;;;;;;3.73;0.50;;;;;;;;;;5109316;28;20046;-56
2021/06/21 14:29:21;;;;;;;1.45;0.65;;;;;;;;;;5094364;28;20518;-56
2021/06/21 14:31:46;;;;;;;2.10;0.50;;;;;;;;;;5100184;28;20027;-57
2021/06/21 14:34:11;;;;;;;2.90;0.30;;;;;;;;;;5114393;28;20063;-56
2021/06/21 14:36:39;;;;;;;1.23;0.30;;;;;;;;;;5109056;28;20008;-57
2021/06/21 14:39:04;;;;;;;2.25;0.68;;;;;;;;;;5095531;28;20027;-56
2021/06/21 14:41:29;;;;;;;3.97;0.40;;;;;;;;;;5107942;28;20023;-54
2021/06/21 14:43:55;;;;;;;1.85;0.40;;;;;;;;;;5114605;28;20055;-57
2021/06/21 14:46:20;;;;;;;2.97;0.43;;;;;;;;;;5110359;28;20368;-56
2021/06/21 14:48:46;;;;;;;1.60;0.30;;;;;;;;;;5106128;28;20516;-55